Huvudsida
METAR-TAF:

METAR-TAF

Flygplatser :

Stavangers flygplats. Sola

Stavanger, Norge

latitud: 58-53N, longitud: 005-38E, höjd: 0 m

Aktuellt väderrapport

Denna rapport gjordes för 43 minuter sedan, klockan 02:50 UTC
Vind 1 kt från nordväst
Temperatur 13°C
Fuktighet 94%
Tryck 1005 hPa
Sikt: 2500 m
fuktdis

METAR: ENZV 200250Z 31001KT 2500 BR VV005 13/12 Q1005

Tid: 05:33 (03:33 UTC)

Väderprognos

Prognos gäller från 20 kl. 00 UTC till 20 kl. 24 UTC
Vind 5 kt varierande vindriktning
Sikt 10 km eller mer
Spridda moln på en höjd av 2500 ft
Brutna moln på en höjd av 4000 ft
Temporärt
från 20 kl. 00 UTC till 20 kl. 06 UTC
Sikt: 4000 m
Brutna moln på en höjd av 700 ft
Brutna moln på en höjd av 1500 ft, Cumulonimbus.
regnskurar, fuktdis
Blir
från 20 kl. 08 UTC till 20 kl. 11 UTC
Vind 12 kt från sydväst

TAF: ENZV 2000/2024 VRB05KT 9999 SCT025 BKN040 TEMPO 2000/2006 4000 SHRA BR BKN007 BKN015CB BECMG 2008/2011 23012KT

Aktuella väderrapporter och prognoser från 4000 flygplatser (METAR- och TAF-rapporter).

De tillgängliga stationerna syns som gula och röda prickar på kartan.

För musen över prickarna för att se namnen på stationerna.

Klicka sedan för att få väderrapporter och prognoser.

För att ändra kartan: Klicka på de gröna knapparna med ett svart kors på för att zooma in; den gröna knappen med ett streck på för att zooma ut; eller på de gröna pilarna för angränsande kartor.


METAR-TAF: